Main page
METAR-TAF:

METAR-TAF

Airports :

Derry, Northern Ireland

City of Derry Airport

latitude: 55-03N, longitude: 007-09W, elevation: 9 m

Current weather observation

The report was made 2 hours and 3 minutes ago, at 15:50 UTC
Wind 7 kt from the South/Southwest, varying between South and West/Southwest
Temperature 12°C
Humidity 54%
Pressure 1014 hPa
Visibility 10 km or more
Broken clouds at a height of 4300 ft

METAR: EGAE 281550Z 21007KT 170V250 9999 BKN043 12/03 Q1014

Time: 18:53 (17:53 UTC)

Forecast

The report was made 6 hours and 54 minutes ago, at 10:59 UTC
Forecast valid from 28 at 12 UTC to 28 at 16 UTC
Wind 10 kt from the Southwest
Visibility 10 km or more
Scattered clouds at a height of 2500 ft
Broken clouds at a height of 4000 ft

TAF: EGAE 281059Z 2812/2816 23010KT 9999 SCT025 BKN040

Weather observations and forecasts of more than 4000 airports (METAR and TAF reports).

The available stations are represented by yellow and red dots on the map.

Hover mouse over dot to see the name of the station.

Then click to see weather observations and forecasts.

To change the map : click on the green buttons with a black cross to zoom in, on the green button with a dash to zoom out, or on the green arrows for adjacent maps.


METAR-TAF: